This is the latest recevied weather packets stored in our database for station/object KD7KCN-5. If no packets are shown the sender has not sent any weather packets the latest 10 day(s).
| Time | Temp. | Humidity | Pressure | Rain* | Wind** | Luminosity | Snow |
|---|---|---|---|---|---|---|---|
| 1778011911 | 16.11° C | 33% | 1009.1 hPa | 0 mm | - | 951 W/m² | - |
| 1778011307 | 16.11° C | 32% | 1009.2 hPa | 0 mm | - | 1113 W/m² | - |
| 1778010709 | 15° C | 34% | 1009.3 hPa | 0 mm | - | 1069 W/m² | - |
| 1778010114 | 14.44° C | 36% | 1009.5 hPa | 0 mm | - | 1020 W/m² | - |
| 1778009509 | 14.44° C | 36% | 1009.6 hPa | 0 mm | - | 469 W/m² | - |
| 1778008911 | 14.44° C | 37% | 1009.7 hPa | 0 mm | - | 1099 W/m² | - |
| 1778008308 | 13.89° C | 39% | 1010 hPa | 0 mm | - | 1004 W/m² | - |
| 1778007709 | 13.89° C | 42% | 1010 hPa | 0 mm | - | 1021 W/m² | - |
| 1778007107 | 12.22° C | 44% | 1010.2 hPa | 0 mm | - | 1107 W/m² | - |
| 1778006508 | 12.22° C | 43% | 1010.1 hPa | 0 mm | - | 230 W/m² | - |
| 1778005907 | 12.22° C | 45% | 1010.1 hPa | 0 mm | - | 304 W/m² | - |
| 1778005308 | 12.22° C | 46% | 1010.1 hPa | 0 mm | - | 260 W/m² | - |
| 1778004708 | 12.78° C | 45% | 1010 hPa | 0 mm | - | 766 W/m² | - |
| 1778002910 | 13.33° C | 44% | 1010 hPa | 0 mm | - | 942 W/m² | - |
| 1778002308 | 13.33° C | 43% | 1010 hPa | 0 mm | - | 904 W/m² | - |
| 1778001708 | 12.78° C | 47% | 1010.1 hPa | 0 mm | - | 881 W/m² | - |
| 1778001109 | 12.78° C | 46% | 1010 hPa | 0 mm | - | 881 W/m² | - |
| 1778000508 | 12.78° C | 47% | 1010.2 hPa | 0 mm | - | 933 W/m² | - |
| 1777999908 | 11.67° C | 50% | 1009.9 hPa | 0 mm | - | 846 W/m² | - |
| 1777999308 | 11.11° C | 49% | 1009.8 hPa | 0 mm | - | 796 W/m² | - |
| 1777998708 | 10.56° C | 51% | 1009.8 hPa | 0 mm | - | 105 W/m² | - |
| 1777998108 | 11.11° C | 49% | 1009.7 hPa | 0 mm | - | 213 W/m² | - |
| 1777997508 | 10.56° C | 52% | 1009.7 hPa | 0 mm | - | 715 W/m² | - |
| 1777996908 | 10° C | 51% | 1009.7 hPa | 0 mm | - | 93 W/m² | - |
| 1777996308 | 10.56° C | 50% | 1009.6 hPa | 0 mm | - | 666 W/m² | - |
* Rain latest hour (hover to see other rain measurements)
** Current wind speed in m/s (hover to see current wind gust speed)